Time;durP1;ratioP1;P1;durP2;ratioP2;P2;SDS_P1;SDS_P2;PMS_P1;PMS_P2;Temp;Humidity;BMP_temperature;BMP_pressure;BME280_temperature;BME280_humidity;BME280_pressure;Samples;Min_cycle;Max_cycle;Signal;HPM_P1;HPM_P2
2022/12/02 00:01:37;;;;;;;;;;;;;;;;;;5089947;28;20507;-71
2022/12/02 00:04:02;;;;;;;;;;;;;;;;;;5091302;28;20372;-70
2022/12/02 00:06:28;;;;;;;;;;;;;;;;;;5092317;28;19924;-70
2022/12/02 00:08:54;;;;;;;;;;;;;;;;;;5078952;28;19984;-70
2022/12/02 00:11:20;;;;;;;;;;;;;;;;;;5091464;28;19931;-71
2022/12/02 00:13:46;;;;;;;;;;;;;;;;;;5085486;28;19931;-70
2022/12/02 00:16:12;;;;;;;;;;;;;;;;;;5085220;28;19925;-70
2022/12/02 00:18:38;;;;;;;;;;;;;;;;;;5093834;28;19932;-70
2022/12/02 00:21:04;;;;;;;;;;;;;;;;;;5092911;28;20414;-71
2022/12/02 00:23:30;;;;;;;;;;;;;;;;;;5085321;28;20026;-71
2022/12/02 00:25:56;;;;;;;;;;;;;;;;;;5074672;28;19928;-71
2022/12/02 00:28:22;;;;;;;;;;;;;;;;;;5088579;28;19924;-71
2022/12/02 00:30:48;;;;;;;;;;;;;;;;;;5091537;28;19924;-71
2022/12/02 00:33:15;;;;;;;;;;;;;;;;;;5091855;28;20026;-71
2022/12/02 00:35:41;;;;;;;;;;;;;;;;;;5106687;22;19925;-79
2022/12/02 00:38:06;;;;;;;;;;;;;;;;;;5035925;28;19948;-79
2022/12/02 00:40:32;;;;;;;;;;;;;;;;;;5038142;28;19929;-80
2022/12/02 00:46:30;;;;;;;;;;;;;;;;;;5039078;28;19951;-80
2022/12/02 00:48:29;;;;;;;;;;;;;;;;;;5033146;28;19971;-80
2022/12/02 00:50:55;;;;;;;;;;;;;;;;;;5034988;28;19925;-80
2022/12/02 00:53:21;;;;;;;;;;;;;;;;;;5036393;28;20016;-80
2022/12/02 00:55:47;;;;;;;;;;;;;;;;;;5038767;28;20480;-81
2022/12/02 00:58:13;;;;;;;;;;;;;;;;;;5047880;28;19976;-80
2022/12/02 01:00:38;;;;;;;;;;;;;;;;;;5016429;28;19930;-80
2022/12/02 01:03:04;;;;;;;;;;;;;;;;;;5032712;28;19925;-80
2022/12/02 01:05:30;;;;;;;;;;;;;;;;;;5039977;28;19932;-80
2022/12/02 01:07:56;;;;;;;;;;;;;;;;;;5047248;28;20007;-80
2022/12/02 01:10:22;;;;;;;;;;;;;;;;;;5048657;28;19937;-80
2022/12/02 01:12:48;;;;;;;;;;;;;;;;;;5048947;28;19920;-80
2022/12/02 01:15:14;;;;;;;;;;;;;;;;;;5042966;28;19952;-80
2022/12/02 01:17:40;;;;;;;;;;;;;;;;;;5054901;28;19929;-80
2022/12/02 01:20:06;;;;;;;;;;;;;;;;;;5054113;28;19925;-80
2022/12/02 01:22:32;;;;;;;;;;;;;;;;;;5049248;28;19926;-80
2022/12/02 01:24:58;;;;;;;;;;;;;;;;;;5052190;28;19925;-80
2022/12/02 01:27:23;;;;;;;;;;;;;;;;;;5044427;28;19925;-81
2022/12/02 01:29:49;;;;;;;;;;;;;;;;;;5045509;28;20293;-80
2022/12/02 01:32:18;;;;;;;;;;;;;;;;;;5046316;28;19925;-80
2022/12/02 01:34:43;;;;;;;;;;;;;;;;;;5042809;28;19933;-80
2022/12/02 01:37:09;;;;;;;;;;;;;;;;;;5047413;28;19916;-80
2022/12/02 01:39:35;;;;;;;;;;;;;;;;;;5052515;28;19944;-80
2022/12/02 01:42:01;;;;;;;;;;;;;;;;;;5052118;28;19952;-80
2022/12/02 01:44:27;;;;;;;;;;;;;;;;;;5053646;28;19925;-80
2022/12/02 01:46:53;;;;;;;;;;;;;;;;;;5037387;28;19925;-81
2022/12/02 01:49:19;;;;;;;;;;;;;;;;;;5053361;28;19936;-80
2022/12/02 01:51:45;;;;;;;;;;;;;;;;;;5038374;28;20008;-81
2022/12/02 01:54:11;;;;;;;;;;;;;;;;;;5044194;28;19929;-80
2022/12/02 01:56:37;;;;;;;;;;;;;;;;;;5044268;28;19925;-81
2022/12/02 01:59:02;;;;;;;;;;;;;;;;;;5033861;28;19936;-81
2022/12/02 02:01:28;;;;;;;;;;;;;;;;;;5044589;28;19925;-81
2022/12/02 02:03:54;;;;;;;;;;;;;;;;;;5046791;28;19925;-81
2022/12/02 02:06:20;;;;;;;;;;;;;;;;;;5044166;28;19929;-81
2022/12/02 02:08:46;;;;;;;;;;;;;;;;;;5051295;28;19964;-81
2022/12/02 02:11:12;;;;;;;;;;;;;;;;;;5056348;28;19926;-82
2022/12/02 02:13:38;;;;;;;;;;;;;;;;;;5048203;28;20025;-81
2022/12/02 02:16:04;;;;;;;;;;;;;;;;;;5047629;28;19990;-80
2022/12/02 02:18:30;;;;;;;;;;;;;;;;;;5043518;28;19955;-80
2022/12/02 02:20:56;;;;;;;;;;;;;;;;;;5041935;28;20335;-80
2022/12/02 02:23:21;;;;;;;;;;;;;;;;;;5040443;28;19968;-80
2022/12/02 02:25:47;;;;;;;;;;;;;;;;;;5035212;28;19925;-80
2022/12/02 02:28:13;;;;;;;;;;;;;;;;;;5042082;28;19925;-80
2022/12/02 02:30:39;;;;;;;;;;;;;;;;;;5037352;28;19948;-80
2022/12/02 02:33:05;;;;;;;;;;;;;;;;;;5029771;28;19925;-81
2022/12/02 02:35:31;;;;;;;;;;;;;;;;;;5040191;28;19934;-81
2022/12/02 02:37:57;;;;;;;;;;;;;;;;;;5042276;28;19932;-80
2022/12/02 02:40:23;;;;;;;;;;;;;;;;;;5040869;28;19947;-81
2022/12/02 02:42:49;;;;;;;;;;;;;;;;;;5042349;28;19925;-80
2022/12/02 02:45:15;;;;;;;;;;;;;;;;;;5037723;28;19926;-80
2022/12/02 02:47:41;;;;;;;;;;;;;;;;;;5028239;28;19933;-80
2022/12/02 02:50:07;;;;;;;;;;;;;;;;;;5044453;28;19925;-80
2022/12/02 02:52:33;;;;;;;;;;;;;;;;;;5045464;28;19921;-80
2022/12/02 02:54:59;;;;;;;;;;;;;;;;;;5033604;28;19932;-79
2022/12/02 02:57:25;;;;;;;;;;;;;;;;;;5037809;28;19979;-80
2022/12/02 02:59:52;;;;;;;;;;;;;;;;;;5041579;28;19925;-80
2022/12/02 03:02:18;;;;;;;;;;;;;;;;;;5041743;28;19935;-80
2022/12/02 03:04:47;;;;;;;;;;;;;;;;;;5043310;28;19925;-80
2022/12/02 03:07:13;;;;;;;;;;;;;;;;;;5025574;28;19932;-80
2022/12/02 03:09:39;;;;;;;;;;;;;;;;;;5059746;28;19913;-80
2022/12/02 03:12:05;;;;;;;;;;;;;;;;;;5057961;28;19944;-80
2022/12/02 03:14:31;;;;;;;;;;;;;;;;;;5038530;28;19925;-81
2022/12/02 03:16:56;;;;;;;;;;;;;;;;;;5054049;28;19925;-81
2022/12/02 03:19:22;;;;;;;;;;;;;;;;;;5051887;28;19925;-81
2022/12/02 03:21:48;;;;;;;;;;;;;;;;;;5042771;28;20387;-81
2022/12/02 03:24:14;;;;;;;;;;;;;;;;;;5043435;28;19929;-81
2022/12/02 03:26:40;;;;;;;;;;;;;;;;;;5032550;28;20266;-81
2022/12/02 03:29:06;;;;;;;;;;;;;;;;;;5034241;28;19925;-80
2022/12/02 03:31:32;;;;;;;;;;;;;;;;;;5040339;28;19976;-80
2022/12/02 03:33:58;;;;;;;;;;;;;;;;;;5035466;28;19978;-81
2022/12/02 03:36:24;;;;;;;;;;;;;;;;;;5039217;28;19925;-81
2022/12/02 03:38:50;;;;;;;;;;;;;;;;;;5039339;28;19926;-81
2022/12/02 03:41:16;;;;;;;;;;;;;;;;;;5031821;28;19921;-80
2022/12/02 03:43:42;;;;;;;;;;;;;;;;;;5037087;28;19925;-79
2022/12/02 03:46:08;;;;;;;;;;;;;;;;;;5018659;28;19925;-80
2022/12/02 03:48:34;;;;;;;;;;;;;;;;;;5024268;28;20379;-80
2022/12/02 03:51:00;;;;;;;;;;;;;;;;;;5033925;28;20407;-80
2022/12/02 03:53:27;;;;;;;;;;;;;;;;;;5030825;28;19968;-80
2022/12/02 03:55:53;;;;;;;;;;;;;;;;;;5038335;28;19933;-80
2022/12/02 03:58:19;;;;;;;;;;;;;;;;;;5031139;28;19977;-80
2022/12/02 04:00:45;;;;;;;;;;;;;;;;;;5043651;28;19931;-80
2022/12/02 04:03:11;;;;;;;;;;;;;;;;;;5023982;28;19929;-80
2022/12/02 04:05:37;;;;;;;;;;;;;;;;;;5040659;28;19925;-80
2022/12/02 04:08:03;;;;;;;;;;;;;;;;;;5042687;28;19925;-80
2022/12/02 04:10:29;;;;;;;;;;;;;;;;;;5043350;28;19976;-81
2022/12/02 04:12:55;;;;;;;;;;;;;;;;;;5038848;28;19931;-80
2022/12/02 04:15:20;;;;;;;;;;;;;;;;;;5054166;28;19933;-80
2022/12/02 04:17:47;;;;;;;;;;;;;;;;;;5054561;28;19992;-80
2022/12/02 04:20:13;;;;;;;;;;;;;;;;;;5020907;28;19925;-80
2022/12/02 04:22:39;;;;;;;;;;;;;;;;;;5043823;28;19924;-80
2022/12/02 04:25:04;;;;;;;;;;;;;;;;;;5037406;28;19926;-80
2022/12/02 04:27:30;;;;;;;;;;;;;;;;;;5039305;28;19936;-80
2022/12/02 04:29:56;;;;;;;;;;;;;;;;;;5037341;28;19925;-80
2022/12/02 04:32:22;;;;;;;;;;;;;;;;;;5040287;28;19929;-80
2022/12/02 04:34:48;;;;;;;;;;;;;;;;;;5039895;28;19929;-80
2022/12/02 04:37:14;;;;;;;;;;;;;;;;;;5039495;28;19937;-81
2022/12/02 04:39:40;;;;;;;;;;;;;;;;;;5042998;28;19935;-81
2022/12/02 04:42:06;;;;;;;;;;;;;;;;;;5040407;28;19932;-81
2022/12/02 04:44:32;;;;;;;;;;;;;;;;;;5039751;28;20008;-81
2022/12/02 04:46:58;;;;;;;;;;;;;;;;;;5040839;28;19925;-81
2022/12/02 04:49:24;;;;;;;;;;;;;;;;;;5028940;28;19973;-80
2022/12/02 04:51:50;;;;;;;;;;;;;;;;;;5045357;28;19983;-80
2022/12/02 04:54:16;;;;;;;;;;;;;;;;;;5036333;28;19926;-81
2022/12/02 04:56:42;;;;;;;;;;;;;;;;;;5037514;28;20272;-81
2022/12/02 04:59:08;;;;;;;;;;;;;;;;;;5043373;28;19925;-81
2022/12/02 05:01:34;;;;;;;;;;;;;;;;;;5044522;28;19926;-81
2022/12/02 05:04:00;;;;;;;;;;;;;;;;;;5031542;28;19929;-82
2022/12/02 05:06:26;;;;;;;;;;;;;;;;;;5025745;28;19968;-82
2022/12/02 05:08:52;;;;;;;;;;;;;;;;;;5038508;28;19925;-82
2022/12/02 05:11:18;;;;;;;;;;;;;;;;;;5044777;28;19932;-82
2022/12/02 05:13:43;;;;;;;;;;;;;;;;;;5042696;28;19935;-82
2022/12/02 05:16:09;;;;;;;;;;;;;;;;;;5044080;28;20083;-82
2022/12/02 05:18:35;;;;;;;;;;;;;;;;;;5027807;28;19947;-81
2022/12/02 05:21:01;;;;;;;;;;;;;;;;;;5051062;28;19931;-82
2022/12/02 05:23:27;;;;;;;;;;;;;;;;;;5056458;28;19933;-80
2022/12/02 05:25:53;;;;;;;;;;;;;;;;;;5054202;28;19940;-79
2022/12/02 05:28:19;;;;;;;;;;;;;;;;;;5049018;28;20347;-79
2022/12/02 05:30:45;;;;;;;;;;;;;;;;;;5052837;28;19925;-80
2022/12/02 05:33:11;;;;;;;;;;;;;;;;;;5051099;28;19929;-80
2022/12/02 05:35:37;;;;;;;;;;;;;;;;;;5055879;28;19932;-80
2022/12/02 05:38:03;;;;;;;;;;;;;;;;;;5054816;28;19925;-80
2022/12/02 05:40:28;;;;;;;;;;;;;;;;;;5054266;28;19956;-80
2022/12/02 05:42:54;;;;;;;;;;;;;;;;;;5036726;28;20354;-80
2022/12/02 05:45:20;;;;;;;;;;;;;;;;;;5053963;28;19929;-81
2022/12/02 05:47:46;;;;;;;;;;;;;;;;;;5035799;28;19960;-81
2022/12/02 05:50:12;;;;;;;;;;;;;;;;;;5048124;28;19956;-80
2022/12/02 05:52:38;;;;;;;;;;;;;;;;;;5051467;28;19925;-81
2022/12/02 05:57:36;;;;;;;;;;;;;;;;;;5057046;28;20351;-81
2022/12/02 06:00:06;;;;;;;;;;;;;;;;;;5040964;28;19940;-80
2022/12/02 06:02:36;;;;;;;;;;;;;;;;;;5066330;28;19952;-81
2022/12/02 06:05:02;;;;;;;;;;;;;;;;;;5050363;28;19936;-81
2022/12/02 06:07:28;;;;;;;;;;;;;;;;;;5024771;28;19968;-81
2022/12/02 06:09:54;;;;;;;;;;;;;;;;;;5047177;28;19925;-81
2022/12/02 06:12:20;;;;;;;;;;;;;;;;;;5039680;28;19968;-81
2022/12/02 06:14:46;;;;;;;;;;;;;;;;;;5042009;28;20008;-81
2022/12/02 06:17:12;;;;;;;;;;;;;;;;;;5042232;28;20038;-81
2022/12/02 06:19:38;;;;;;;;;;;;;;;;;;5015206;28;19932;-80
2022/12/02 06:22:04;;;;;;;;;;;;;;;;;;5035777;28;20287;-81
2022/12/02 06:24:30;;;;;;;;;;;;;;;;;;5032085;28;20475;-79
2022/12/02 06:26:57;;;;;;;;;;;;;;;;;;5035403;28;19961;-80
2022/12/02 06:29:22;;;;;;;;;;;;;;;;;;5029497;28;19932;-80
2022/12/02 06:31:48;;;;;;;;;;;;;;;;;;5042671;28;19925;-79
2022/12/02 06:34:14;;;;;;;;;;;;;;;;;;5039439;28;19933;-80
2022/12/02 06:36:40;;;;;;;;;;;;;;;;;;5049378;28;19956;-80
2022/12/02 06:39:06;;;;;;;;;;;;;;;;;;5028635;28;19925;-80
2022/12/02 06:41:32;;;;;;;;;;;;;;;;;;5046279;28;19925;-80
2022/12/02 06:46:43;;;;;;;;;;;;;;;;;;5036456;28;20363;-81
2022/12/02 06:49:09;;;;;;;;;;;;;;;;;;5036429;28;20055;-81
2022/12/02 06:51:35;;;;;;;;;;;;;;;;;;5044637;28;19925;-80
2022/12/02 06:54:01;;;;;;;;;;;;;;;;;;5020741;28;19984;-81
2022/12/02 06:56:27;;;;;;;;;;;;;;;;;;5037828;28;19956;-81
2022/12/02 06:58:53;;;;;;;;;;;;;;;;;;5023535;28;19964;-81
2022/12/02 07:01:19;;;;;;;;;;;;;;;;;;5042889;28;19988;-82
2022/12/02 07:03:46;;;;;;;;;;;;;;;;;;5024950;28;19984;-82
2022/12/02 07:06:12;;;;;;;;;;;;;;;;;;5026128;28;19972;-83
2022/12/02 07:08:38;;;;;;;;;;;;;;;;;;5037474;28;19929;-80
2022/12/02 07:11:04;;;;;;;;;;;;;;;;;;5041328;28;19932;-79
2022/12/02 07:13:30;;;;;;;;;;;;;;;;;;5040628;28;19929;-80
2022/12/02 07:15:56;;;;;;;;;;;;;;;;;;5041407;28;19964;-81
2022/12/02 07:18:21;;;;;;;;;;;;;;;;;;5030015;28;19926;-81
2022/12/02 07:20:47;;;;;;;;;;;;;;;;;;5034579;28;20298;-81
2022/12/02 07:23:13;;;;;;;;;;;;;;;;;;5039930;28;19929;-81
2022/12/02 07:25:39;;;;;;;;;;;;;;;;;;5036476;28;19932;-80
2022/12/02 07:28:05;;;;;;;;;;;;;;;;;;5013853;28;19980;-81
2022/12/02 07:30:31;;;;;;;;;;;;;;;;;;5020663;28;19932;-81
2022/12/02 07:32:57;;;;;;;;;;;;;;;;;;5033345;28;19925;-81
2022/12/02 07:35:23;;;;;;;;;;;;;;;;;;5023421;28;19925;-82
2022/12/02 07:37:49;;;;;;;;;;;;;;;;;;5034301;28;19924;-82
2022/12/02 07:40:15;;;;;;;;;;;;;;;;;;5037389;28;19936;-81
2022/12/02 07:42:42;;;;;;;;;;;;;;;;;;5033842;28;20291;-80
2022/12/02 07:45:08;;;;;;;;;;;;;;;;;;5018238;28;20007;-81
2022/12/02 07:47:33;;;;;;;;;;;;;;;;;;5041097;28;20449;-80
2022/12/02 07:49:59;;;;;;;;;;;;;;;;;;5037186;28;19932;-80
2022/12/02 07:52:25;;;;;;;;;;;;;;;;;;5025720;28;19925;-81
2022/12/02 07:54:53;;;;;;;;;;;;;;;;;;5025998;28;19926;-80
2022/12/02 07:57:19;;;;;;;;;;;;;;;;;;5006503;28;19935;-81
2022/12/02 07:59:45;;;;;;;;;;;;;;;;;;5036486;28;20021;-80
2022/12/02 08:02:11;;;;;;;;;;;;;;;;;;5034722;28;19929;-80
2022/12/02 08:04:37;;;;;;;;;;;;;;;;;;5037936;28;19932;-80
2022/12/02 08:07:03;;;;;;;;;;;;;;;;;;5018671;28;19932;-80
2022/12/02 08:09:28;;;;;;;;;;;;;;;;;;5041446;28;20278;-80
2022/12/02 08:11:54;;;;;;;;;;;;;;;;;;5034586;28;19989;-80
2022/12/02 08:14:20;;;;;;;;;;;;;;;;;;5028511;28;19988;-80
2022/12/02 08:16:46;;;;;;;;;;;;;;;;;;5039136;28;19971;-81
2022/12/02 08:19:12;;;;;;;;;;;;;;;;;;5035175;28;19933;-80
2022/12/02 08:21:39;;;;;;;;;;;;;;;;;;5041751;28;19925;-80
2022/12/02 08:24:05;;;;;;;;;;;;;;;;;;5052474;28;19913;-81
2022/12/02 08:26:31;;;;;;;;;;;;;;;;;;5053677;28;19935;-79
2022/12/02 08:28:57;;;;;;;;;;;;;;;;;;5047424;28;19925;-79
2022/12/02 08:31:23;;;;;;;;;;;;;;;;;;5041606;28;20401;-79
2022/12/02 08:33:49;;;;;;;;;;;;;;;;;;5038138;28;19935;-79
2022/12/02 08:36:15;;;;;;;;;;;;;;;;;;5032773;28;19925;-80
2022/12/02 08:38:41;;;;;;;;;;;;;;;;;;5030474;28;20007;-79
2022/12/02 08:41:07;;;;;;;;;;;;;;;;;;5051619;28;19936;-79
2022/12/02 08:43:33;;;;;;;;;;;;;;;;;;5017626;28;19929;-79
2022/12/02 08:46:00;;;;;;;;;;;;;;;;;;5037609;28;20367;-79
2022/12/02 08:48:26;;;;;;;;;;;;;;;;;;5034452;28;19965;-79
2022/12/02 08:50:53;;;;;;;;;;;;;;;;;;5043009;28;19936;-79
2022/12/02 08:53:28;;;;;;;;;;;;;;;;;;5039735;28;19925;-79
2022/12/02 08:55:54;;;;;;;;;;;;;;;;;;5041089;28;19986;-79
2022/12/02 08:58:20;;;;;;;;;;;;;;;;;;5044850;28;19929;-80
2022/12/02 09:00:46;;;;;;;;;;;;;;;;;;5036431;28;19925;-79
2022/12/02 09:03:13;;;;;;;;;;;;;;;;;;5034153;28;19925;-79
2022/12/02 09:05:40;;;;;;;;;;;;;;;;;;5033928;28;20031;-80
2022/12/02 09:08:06;;;;;;;;;;;;;;;;;;5036604;28;19925;-79
2022/12/02 09:10:32;;;;;;;;;;;;;;;;;;5016787;28;19931;-79
2022/12/02 09:12:58;;;;;;;;;;;;;;;;;;5021351;28;19925;-79
2022/12/02 09:15:26;;;;;;;;;;;;;;;;;;5035015;28;20287;-79
2022/12/02 09:17:53;;;;;;;;;;;;;;;;;;5020016;28;20019;-80
2022/12/02 09:20:18;;;;;;;;;;;;;;;;;;5041971;28;19975;-79
2022/12/02 09:22:44;;;;;;;;;;;;;;;;;;5040161;28;19975;-81
2022/12/02 09:25:10;;;;;;;;;;;;;;;;;;5039800;28;19952;-81
2022/12/02 09:27:36;;;;;;;;;;;;;;;;;;5023075;28;19979;-79
2022/12/02 09:30:02;;;;;;;;;;;;;;;;;;5042095;28;20337;-80
2022/12/02 09:32:28;;;;;;;;;;;;;;;;;;5040870;28;19925;-80
2022/12/02 09:34:55;;;;;;;;;;;;;;;;;;5041239;28;20030;-80
2022/12/02 09:37:21;;;;;;;;;;;;;;;;;;5043303;28;19932;-80
2022/12/02 09:39:47;;;;;;;;;;;;;;;;;;5043211;28;19932;-81
2022/12/02 09:42:13;;;;;;;;;;;;;;;;;;5041837;28;19951;-81
2022/12/02 09:44:39;;;;;;;;;;;;;;;;;;5028246;28;19925;-80
2022/12/02 09:47:05;;;;;;;;;;;;;;;;;;5047847;28;19936;-80
2022/12/02 09:49:31;;;;;;;;;;;;;;;;;;5050936;28;19925;-81
2022/12/02 09:51:57;;;;;;;;;;;;;;;;;;5048396;28;19945;-79
2022/12/02 09:54:23;;;;;;;;;;;;;;;;;;5047356;28;20012;-80
2022/12/02 09:56:49;;;;;;;;;;;;;;;;;;5049437;28;20296;-80
2022/12/02 09:59:15;;;;;;;;;;;;;;;;;;5010721;28;19925;-80
2022/12/02 10:01:41;;;;;;;;;;;;;;;;;;5013125;28;20020;-81
2022/12/02 10:04:06;;;;;;;;;;;;;;;;;;5044481;28;20391;-80
2022/12/02 10:06:32;;;;;;;;;;;;;;;;;;5028270;28;19925;-80
2022/12/02 10:08:58;;;;;;;;;;;;;;;;;;5035132;28;19947;-81
2022/12/02 10:11:26;;;;;;;;;;;;;;;;;;5066099;28;19925;-80
2022/12/02 10:13:52;;;;;;;;;;;;;;;;;;5050095;28;19925;-81
2022/12/02 10:16:18;;;;;;;;;;;;;;;;;;5063125;28;20033;-82
2022/12/02 10:18:46;;;;;;;;;;;;;;;;;;5044499;28;19925;-81
2022/12/02 10:21:12;;;;;;;;;;;;;;;;;;5045155;28;19921;-80
2022/12/02 10:23:38;;;;;;;;;;;;;;;;;;5041103;28;19925;-79
2022/12/02 10:26:04;;;;;;;;;;;;;;;;;;5041093;28;20417;-79
2022/12/02 10:28:33;;;;;;;;;;;;;;;;;;5046260;28;19987;-80
2022/12/02 10:31:03;;;;;;;;;;;;;;;;;;5053292;28;19925;-80
2022/12/02 10:33:38;;;;;;;;;;;;;;;;;;5052278;28;19925;-80
2022/12/02 10:36:04;;;;;;;;;;;;;;;;;;5043759;28;19951;-80
2022/12/02 10:38:30;;;;;;;;;;;;;;;;;;5041104;28;19967;-81
2022/12/02 10:40:56;;;;;;;;;;;;;;;;;;5035814;28;19925;-80
2022/12/02 10:43:22;;;;;;;;;;;;;;;;;;5046664;28;19929;-80
2022/12/02 10:45:48;;;;;;;;;;;;;;;;;;5033085;28;19932;-80
2022/12/02 10:48:13;;;;;;;;;;;;;;;;;;5040507;28;20333;-81
2022/12/02 10:50:39;;;;;;;;;;;;;;;;;;5039912;28;19925;-81
2022/12/02 10:53:05;;;;;;;;;;;;;;;;;;5039376;28;19989;-81
2022/12/02 10:55:31;;;;;;;;;;;;;;;;;;5043809;28;19964;-80
2022/12/02 10:57:57;;;;;;;;;;;;;;;;;;5041519;28;19933;-79
2022/12/02 11:00:23;;;;;;;;;;;;;;;;;;5025806;28;19921;-81
2022/12/02 11:02:49;;;;;;;;;;;;;;;;;;5040997;28;20036;-81
2022/12/02 11:05:15;;;;;;;;;;;;;;;;;;5031609;28;19933;-81
2022/12/02 11:07:41;;;;;;;;;;;;;;;;;;5040518;28;20011;-81
2022/12/02 11:10:07;;;;;;;;;;;;;;;;;;5047515;28;19925;-80
2022/12/02 11:12:33;;;;;;;;;;;;;;;;;;5042039;28;20355;-80
2022/12/02 11:14:59;;;;;;;;;;;;;;;;;;5017784;28;19926;-81
2022/12/02 11:17:25;;;;;;;;;;;;;;;;;;5021570;28;19932;-82
2022/12/02 11:19:51;;;;;;;;;;;;;;;;;;5045658;28;19964;-81
2022/12/02 11:22:17;;;;;;;;;;;;;;;;;;5043764;28;20399;-80
2022/12/02 11:24:42;;;;;;;;;;;;;;;;;;5043623;28;20413;-80
2022/12/02 11:27:09;;;;;;;;;;;;;;;;;;5042598;28;19984;-80
2022/12/02 11:29:36;;;;;;;;;;;;;;;;;;5028002;28;19925;-80
2022/12/02 11:32:02;;;;;;;;;;;;;;;;;;5040810;28;19983;-81
2022/12/02 11:34:28;;;;;;;;;;;;;;;;;;5033594;28;19952;-79
2022/12/02 11:36:54;;;;;;;;;;;;;;;;;;5050214;28;19925;-79
2022/12/02 11:39:20;;;;;;;;;;;;;;;;;;5050960;28;19929;-79
2022/12/02 11:41:46;;;;;;;;;;;;;;;;;;5050925;28;19964;-80
2022/12/02 11:44:12;;;;;;;;;;;;;;;;;;5019873;28;20383;-80
2022/12/02 11:46:38;;;;;;;;;;;;;;;;;;5041464;28;19936;-81
2022/12/02 11:49:04;;;;;;;;;;;;;;;;;;5047734;28;19925;-81
2022/12/02 11:51:30;;;;;;;;;;;;;;;;;;5024123;28;19928;-81
2022/12/02 11:53:56;;;;;;;;;;;;;;;;;;5041741;28;19968;-80
2022/12/02 11:56:22;;;;;;;;;;;;;;;;;;5042964;28;19925;-81
2022/12/02 11:58:48;;;;;;;;;;;;;;;;;;5043176;28;19932;-81
2022/12/02 12:01:14;;;;;;;;;;;;;;;;;;5044140;28;19931;-81
2022/12/02 12:03:40;;;;;;;;;;;;;;;;;;5017569;28;19945;-81
2022/12/02 12:06:06;;;;;;;;;;;;;;;;;;5036256;28;20012;-79
2022/12/02 12:08:32;;;;;;;;;;;;;;;;;;5046040;28;20022;-79
2022/12/02 12:10:58;;;;;;;;;;;;;;;;;;5040676;28;19925;-80
2022/12/02 12:13:24;;;;;;;;;;;;;;;;;;5043136;28;19972;-80
2022/12/02 12:15:50;;;;;;;;;;;;;;;;;;5046797;28;19921;-80
2022/12/02 12:18:16;;;;;;;;;;;;;;;;;;5027970;28;19931;-79
2022/12/02 12:20:42;;;;;;;;;;;;;;;;;;5044288;28;19935;-80
2022/12/02 12:23:08;;;;;;;;;;;;;;;;;;5038291;28;19925;-79
2022/12/02 12:25:34;;;;;;;;;;;;;;;;;;5041360;28;20039;-80
2022/12/02 12:28:00;;;;;;;;;;;;;;;;;;5019059;28;19932;-80
2022/12/02 12:30:26;;;;;;;;;;;;;;;;;;5041283;28;19996;-80
2022/12/02 12:32:52;;;;;;;;;;;;;;;;;;5044566;28;19925;-81
2022/12/02 12:35:18;;;;;;;;;;;;;;;;;;5046706;28;19926;-82
2022/12/02 12:37:44;;;;;;;;;;;;;;;;;;5053816;28;20011;-82
2022/12/02 12:40:10;;;;;;;;;;;;;;;;;;5052569;28;19979;-82
2022/12/02 12:42:36;;;;;;;;;;;;;;;;;;5041881;28;20016;-83
2022/12/02 12:45:01;;;;;;;;;;;;;;;;;;5058202;28;19946;-82
2022/12/02 12:47:27;;;;;;;;;;;;;;;;;;5044986;28;19941;-83
2022/12/02 12:49:53;;;;;;;;;;;;;;;;;;5042321;28;19925;-82
2022/12/02 12:52:19;;;;;;;;;;;;;;;;;;5043300;28;19964;-83
2022/12/02 12:54:49;;;;;;;;;;;;;;;;;;5043934;28;19932;-82
2022/12/02 12:57:15;;;;;;;;;;;;;;;;;;5037809;28;19988;-83
2022/12/02 12:59:41;;;;;;;;;;;;;;;;;;5037350;28;20018;-83
2022/12/02 13:02:06;;;;;;;;;;;;;;;;;;5038977;28;20024;-82
2022/12/02 13:04:33;;;;;;;;;;;;;;;;;;5044166;28;19932;-82
2022/12/02 13:06:58;;;;;;;;;;;;;;;;;;5037985;28;19926;-83
2022/12/02 13:09:24;;;;;;;;;;;;;;;;;;5045968;28;19925;-83
2022/12/02 13:11:50;;;;;;;;;;;;;;;;;;5051658;28;19925;-81
2022/12/02 13:14:16;;;;;;;;;;;;;;;;;;5049926;28;19925;-80
2022/12/02 13:16:42;;;;;;;;;;;;;;;;;;5046589;28;20019;-80
2022/12/02 13:19:08;;;;;;;;;;;;;;;;;;5052414;28;19963;-80
2022/12/02 13:21:34;;;;;;;;;;;;;;;;;;5054136;28;19936;-81
2022/12/02 13:24:02;;;;;;;;;;;;;;;;;;5054288;28;19925;-79
2022/12/02 13:26:28;;;;;;;;;;;;;;;;;;5054425;28;19925;-79
2022/12/02 13:28:54;;;;;;;;;;;;;;;;;;5046409;28;19975;-80
2022/12/02 13:31:19;;;;;;;;;;;;;;;;;;5042285;28;19933;-81
2022/12/02 13:33:45;;;;;;;;;;;;;;;;;;5044658;28;19988;-81
2022/12/02 13:36:11;;;;;;;;;;;;;;;;;;5046828;28;20008;-81
2022/12/02 13:38:37;;;;;;;;;;;;;;;;;;5048827;28;19925;-81
2022/12/02 13:41:03;;;;;;;;;;;;;;;;;;5053977;28;19929;-81
2022/12/02 13:43:29;;;;;;;;;;;;;;;;;;5053731;28;19988;-81
2022/12/02 13:45:55;;;;;;;;;;;;;;;;;;5049963;28;19948;-82
2022/12/02 13:48:21;;;;;;;;;;;;;;;;;;5055632;28;19936;-81
2022/12/02 13:50:47;;;;;;;;;;;;;;;;;;5055557;28;19925;-82
2022/12/02 13:53:13;;;;;;;;;;;;;;;;;;5060715;28;19929;-81
2022/12/02 13:55:39;;;;;;;;;;;;;;;;;;5042330;28;19925;-80
2022/12/02 13:58:05;;;;;;;;;;;;;;;;;;5054688;28;20378;-80
2022/12/02 14:00:31;;;;;;;;;;;;;;;;;;5045971;28;20028;-81
2022/12/02 14:02:56;;;;;;;;;;;;;;;;;;5045596;28;19925;-82
2022/12/02 14:05:22;;;;;;;;;;;;;;;;;;5044500;28;19981;-80
2022/12/02 14:07:48;;;;;;;;;;;;;;;;;;5053146;28;19971;-81
2022/12/02 14:10:14;;;;;;;;;;;;;;;;;;5058697;28;19932;-81
2022/12/02 14:12:40;;;;;;;;;;;;;;;;;;5048334;28;19945;-81
2022/12/02 14:15:06;;;;;;;;;;;;;;;;;;5051963;28;19925;-81
2022/12/02 14:17:33;;;;;;;;;;;;;;;;;;5058312;28;19925;-80
2022/12/02 14:19:58;;;;;;;;;;;;;;;;;;5058786;28;19913;-81
2022/12/02 14:22:24;;;;;;;;;;;;;;;;;;5058524;28;19924;-81
2022/12/02 14:24:50;;;;;;;;;;;;;;;;;;5057427;28;19940;-81
2022/12/02 14:27:16;;;;;;;;;;;;;;;;;;5055225;28;19933;-81
2022/12/02 14:29:42;;;;;;;;;;;;;;;;;;5047477;28;19988;-80
2022/12/02 14:32:08;;;;;;;;;;;;;;;;;;5049220;28;20053;-82
2022/12/02 14:34:35;;;;;;;;;;;;;;;;;;5049957;28;19932;-81
2022/12/02 14:37:01;;;;;;;;;;;;;;;;;;5052927;28;19950;-81
2022/12/02 14:39:27;;;;;;;;;;;;;;;;;;5053062;28;20418;-81
2022/12/02 14:41:53;;;;;;;;;;;;;;;;;;5055320;28;19932;-80
2022/12/02 14:44:19;;;;;;;;;;;;;;;;;;5054027;28;19993;-80
2022/12/02 14:46:45;;;;;;;;;;;;;;;;;;5054278;28;19925;-80
2022/12/02 14:49:11;;;;;;;;;;;;;;;;;;5055478;28;19948;-81
2022/12/02 14:51:37;;;;;;;;;;;;;;;;;;5048631;28;19929;-81
2022/12/02 14:54:03;;;;;;;;;;;;;;;;;;5050191;28;19928;-81
2022/12/02 14:56:29;;;;;;;;;;;;;;;;;;5044184;28;19929;-81
2022/12/02 14:58:55;;;;;;;;;;;;;;;;;;5042136;28;19925;-81
2022/12/02 15:01:21;;;;;;;;;;;;;;;;;;5052319;28;19937;-81
2022/12/02 15:03:47;;;;;;;;;;;;;;;;;;5031944;28;19925;-81
2022/12/02 15:06:13;;;;;;;;;;;;;;;;;;5042167;28;19987;-81
2022/12/02 15:08:39;;;;;;;;;;;;;;;;;;5053666;28;20260;-81
2022/12/02 15:11:04;;;;;;;;;;;;;;;;;;5049461;28;19988;-81
2022/12/02 15:13:30;;;;;;;;;;;;;;;;;;5043063;28;20002;-80
2022/12/02 15:15:56;;;;;;;;;;;;;;;;;;5042380;28;19925;-81
2022/12/02 15:18:22;;;;;;;;;;;;;;;;;;5038301;28;19925;-81
2022/12/02 15:20:49;;;;;;;;;;;;;;;;;;5035908;28;19969;-81
2022/12/02 15:23:15;;;;;;;;;;;;;;;;;;5045309;28;19925;-81
2022/12/02 15:25:41;;;;;;;;;;;;;;;;;;5047688;28;20426;-82
2022/12/02 15:28:07;;;;;;;;;;;;;;;;;;5048712;28;20458;-82
2022/12/02 15:30:33;;;;;;;;;;;;;;;;;;5055392;28;19921;-82
2022/12/02 15:32:59;;;;;;;;;;;;;;;;;;5054013;28;19925;-82
2022/12/02 15:35:25;;;;;;;;;;;;;;;;;;5054169;28;19937;-82
2022/12/02 15:37:51;;;;;;;;;;;;;;;;;;5052428;28;19935;-82
2022/12/02 15:40:17;;;;;;;;;;;;;;;;;;5050934;28;19932;-82
2022/12/02 15:42:42;;;;;;;;;;;;;;;;;;5052017;28;20384;-82
2022/12/02 15:45:08;;;;;;;;;;;;;;;;;;5054118;28;19932;-82
2022/12/02 15:47:36;;;;;;;;;;;;;;;;;;5051205;28;19932;-82
2022/12/02 15:50:02;;;;;;;;;;;;;;;;;;5057092;28;19909;-82
2022/12/02 15:52:28;;;;;;;;;;;;;;;;;;5031521;28;20016;-81
2022/12/02 15:54:58;;;;;;;;;;;;;;;;;;5031698;28;19929;-80
2022/12/02 15:57:25;;;;;;;;;;;;;;;;;;5046530;28;19925;-82
2022/12/02 15:59:51;;;;;;;;;;;;;;;;;;5047489;28;19929;-82
2022/12/02 16:02:17;;;;;;;;;;;;;;;;;;5052652;28;20015;-82
2022/12/02 16:04:43;;;;;;;;;;;;;;;;;;5057030;28;19909;-80
2022/12/02 16:07:09;;;;;;;;;;;;;;;;;;5055256;28;19925;-82
2022/12/02 16:09:36;;;;;;;;;;;;;;;;;;5047327;28;19925;-83
2022/12/02 16:12:03;;;;;;;;;;;;;;;;;;5048203;28;19977;-82
2022/12/02 16:14:28;;;;;;;;;;;;;;;;;;5047000;28;19965;-83
2022/12/02 16:16:54;;;;;;;;;;;;;;;;;;5040045;28;19929;-82
2022/12/02 16:19:20;;;;;;;;;;;;;;;;;;5044433;28;19929;-82
2022/12/02 16:21:46;;;;;;;;;;;;;;;;;;5038365;28;19977;-83
2022/12/02 16:24:12;;;;;;;;;;;;;;;;;;5041446;28;19932;-83
2022/12/02 16:26:38;;;;;;;;;;;;;;;;;;5043602;28;19925;-82
2022/12/02 16:29:04;;;;;;;;;;;;;;;;;;5042434;28;19925;-83
2022/12/02 16:31:30;;;;;;;;;;;;;;;;;;5041602;28;20401;-82
2022/12/02 16:33:56;;;;;;;;;;;;;;;;;;5027794;28;19931;-83
2022/12/02 16:36:22;;;;;;;;;;;;;;;;;;5041073;28;20111;-83
2022/12/02 16:38:48;;;;;;;;;;;;;;;;;;5042481;28;20302;-83
2022/12/02 16:41:14;;;;;;;;;;;;;;;;;;5028399;28;20009;-83
2022/12/02 16:43:40;;;;;;;;;;;;;;;;;;5048504;28;19965;-83
2022/12/02 16:46:06;;;;;;;;;;;;;;;;;;5040465;28;19949;-83